createdAt,value
2018-06-29T00:00:05.441Z,986.44
2018-06-29T00:01:05.376Z,986.42
2018-06-29T00:02:05.320Z,986.41
2018-06-29T00:03:05.264Z,986.37
2018-06-29T00:04:05.203Z,986.39
2018-06-29T00:05:05.139Z,986.39
2018-06-29T00:06:05.072Z,986.41
2018-06-29T00:07:05.017Z,986.43
2018-06-29T00:08:04.949Z,986.40
2018-06-29T00:09:04.900Z,986.42
2018-06-29T00:10:04.850Z,986.43
2018-06-29T00:11:04.767Z,986.41
2018-06-29T00:12:04.706Z,986.46
2018-06-29T00:13:04.656Z,986.49
2018-06-29T00:14:04.595Z,986.49
2018-06-29T00:15:04.530Z,986.48
2018-06-29T00:16:04.479Z,986.48
2018-06-29T00:17:04.417Z,986.48
2018-06-29T00:18:04.337Z,986.51
2018-06-29T00:19:04.290Z,986.51
2018-06-29T00:20:04.224Z,986.50
2018-06-29T00:21:04.169Z,986.52
2018-06-29T00:22:04.092Z,986.50
2018-06-29T00:23:04.036Z,986.52
2018-06-29T00:24:03.977Z,986.51
2018-06-29T00:25:03.924Z,986.51
2018-06-29T00:26:03.857Z,986.52
2018-06-29T00:27:03.805Z,986.56
2018-06-29T00:28:03.729Z,986.58
2018-06-29T00:29:03.675Z,986.58
2018-06-29T00:30:03.609Z,986.59
2018-06-29T00:31:03.552Z,986.63
2018-06-29T00:32:03.503Z,986.66
2018-06-29T00:33:03.439Z,986.65
2018-06-29T00:34:03.363Z,986.68
2018-06-29T00:35:03.317Z,986.67
2018-06-29T00:36:03.246Z,986.68
2018-06-29T00:37:03.310Z,986.63
2018-06-29T00:38:03.133Z,986.65
2018-06-29T00:39:03.064Z,986.65
2018-06-29T00:40:02.993Z,986.62
2018-06-29T00:41:02.953Z,986.66
2018-06-29T00:42:02.876Z,986.65
2018-06-29T00:43:02.815Z,986.63
2018-06-29T00:44:02.768Z,986.63
2018-06-29T00:45:02.704Z,986.64
2018-06-29T00:46:02.731Z,986.62
2018-06-29T00:47:02.605Z,986.62
2018-06-29T00:48:02.520Z,986.59
2018-06-29T00:49:02.462Z,986.59
2018-06-29T00:50:02.416Z,986.59
2018-06-29T00:51:02.347Z,986.57
2018-06-29T00:52:02.267Z,986.57
2018-06-29T00:53:02.216Z,986.60
2018-06-29T00:54:02.148Z,986.54
2018-06-29T00:55:02.099Z,986.56
2018-06-29T00:56:02.031Z,986.52
2018-06-29T00:57:01.960Z,986.54
2018-06-29T00:58:01.901Z,986.52
2018-06-29T00:59:01.854Z,986.49
2018-06-29T01:00:01.787Z,986.51
2018-06-29T01:01:01.717Z,986.48
2018-06-29T01:02:01.672Z,986.50
2018-06-29T01:03:22.593Z,986.52
2018-06-29T01:04:01.536Z,986.53
2018-06-29T01:05:01.480Z,986.51
2018-06-29T01:06:01.429Z,986.52
2018-06-29T01:07:01.359Z,986.54
2018-06-29T01:08:01.299Z,986.56
2018-06-29T01:09:01.235Z,986.57
2018-06-29T01:10:01.181Z,986.57
2018-06-29T01:11:01.109Z,986.59
2018-06-29T01:12:01.051Z,986.58
2018-06-29T01:13:00.982Z,986.62
2018-06-29T01:14:00.924Z,986.64
2018-06-29T01:15:00.863Z,986.62
2018-06-29T01:16:00.806Z,986.63
2018-06-29T01:17:00.741Z,986.62
2018-06-29T01:18:00.685Z,986.62
2018-06-29T01:19:00.616Z,986.58
2018-06-29T01:20:00.543Z,986.61
2018-06-29T01:21:00.490Z,986.62
2018-06-29T01:22:00.441Z,986.62
2018-06-29T01:23:00.388Z,986.65
2018-06-29T01:24:00.314Z,986.70
2018-06-29T01:25:00.258Z,986.71
2018-06-29T01:26:00.179Z,986.70
2018-06-29T01:27:00.130Z,986.74
2018-06-29T01:28:00.067Z,986.77
2018-06-29T01:28:59.998Z,986.75
2018-06-29T01:29:59.943Z,986.69
2018-06-29T01:30:59.889Z,986.74
2018-06-29T01:31:59.827Z,986.74
2018-06-29T01:32:59.754Z,986.78
2018-06-29T01:33:59.697Z,986.77
2018-06-29T01:34:59.626Z,986.77
2018-06-29T01:35:59.650Z,986.81
2018-06-29T01:36:59.514Z,986.85
2018-06-29T01:37:59.439Z,986.88
2018-06-29T01:38:59.382Z,986.94
2018-06-29T01:39:59.319Z,986.95
2018-06-29T01:40:59.264Z,987.05
2018-06-29T01:41:59.212Z,987.04
2018-06-29T01:42:59.133Z,987.07
2018-06-29T01:43:59.084Z,987.11
2018-06-29T01:44:59.021Z,987.12
2018-06-29T01:45:58.949Z,987.12
2018-06-29T01:46:58.893Z,987.15
2018-06-29T01:47:58.835Z,987.19
2018-06-29T01:48:58.790Z,987.25
2018-06-29T01:49:58.712Z,987.32
2018-06-29T01:50:58.648Z,987.33
2018-06-29T01:51:58.581Z,987.35
2018-06-29T01:52:58.525Z,987.37
2018-06-29T01:53:58.470Z,987.35
2018-06-29T01:54:58.395Z,987.35
2018-06-29T01:55:58.344Z,987.33
2018-06-29T01:56:58.286Z,987.35
2018-06-29T01:57:58.216Z,987.34
2018-06-29T01:58:58.155Z,987.32
2018-06-29T01:59:58.100Z,987.31
2018-06-29T02:00:58.034Z,987.26
2018-06-29T02:01:57.974Z,987.25
2018-06-29T02:02:57.918Z,987.20
2018-06-29T02:03:57.847Z,987.12
2018-06-29T02:04:57.800Z,987.07
2018-06-29T02:05:57.731Z,987.05
2018-06-29T02:06:57.668Z,987.03
2018-06-29T02:07:57.678Z,987.05
2018-06-29T02:08:57.539Z,987.02
2018-06-29T02:09:57.482Z,987.05
2018-06-29T02:10:57.419Z,987.08
2018-06-29T02:11:57.360Z,987.09
2018-06-29T02:12:57.296Z,987.07
2018-06-29T02:13:57.239Z,987.06
2018-06-29T02:14:57.184Z,987.10
2018-06-29T02:15:57.103Z,987.05
2018-06-29T02:16:57.056Z,987.05
2018-06-29T02:17:56.979Z,986.96
2018-06-29T02:18:56.942Z,986.95
2018-06-29T02:19:56.869Z,986.91
2018-06-29T02:20:56.812Z,986.92
2018-06-29T02:21:56.739Z,986.96
2018-06-29T02:22:56.679Z,986.92
2018-06-29T02:23:56.627Z,986.97
2018-06-29T02:24:56.561Z,986.98
2018-06-29T02:25:56.497Z,986.99
2018-06-29T02:26:56.443Z,987.02
2018-06-29T02:27:56.378Z,986.98
2018-06-29T02:28:56.317Z,986.98
2018-06-29T02:29:56.247Z,986.98
2018-06-29T02:30:56.177Z,987.02
2018-06-29T02:31:56.133Z,986.98
2018-06-29T02:32:56.059Z,986.95
2018-06-29T02:33:56.015Z,986.97
2018-06-29T02:34:55.947Z,986.98
2018-06-29T02:35:55.881Z,986.97
2018-06-29T02:36:55.813Z,986.97
2018-06-29T02:37:55.762Z,986.91
2018-06-29T02:38:55.692Z,986.93
2018-06-29T02:39:55.631Z,986.93
2018-06-29T02:40:55.566Z,986.90
2018-06-29T02:41:55.505Z,986.95
2018-06-29T02:42:55.457Z,986.95
2018-06-29T02:43:55.369Z,986.96
2018-06-29T02:44:55.330Z,986.95
2018-06-29T02:45:55.265Z,986.89
2018-06-29T02:46:55.208Z,986.84
2018-06-29T02:47:55.137Z,986.80
2018-06-29T02:48:55.077Z,986.76
2018-06-29T02:49:55.012Z,986.71
2018-06-29T02:50:54.945Z,986.73
2018-06-29T02:51:54.883Z,986.70
2018-06-29T02:52:54.823Z,986.70
2018-06-29T02:53:54.769Z,986.65
2018-06-29T02:54:54.710Z,986.63
2018-06-29T02:55:54.648Z,986.59
2018-06-29T02:56:54.582Z,986.63
2018-06-29T02:57:54.522Z,986.57
2018-06-29T02:58:54.456Z,986.60
2018-06-29T02:59:54.397Z,986.55
2018-06-29T03:00:54.339Z,986.55
2018-06-29T03:01:54.257Z,986.54
2018-06-29T03:02:54.205Z,986.50
2018-06-29T03:03:54.144Z,986.44
2018-06-29T03:04:54.079Z,986.42
2018-06-29T03:05:54.018Z,986.37
2018-06-29T03:06:53.955Z,986.38
2018-06-29T03:07:53.891Z,986.39
2018-06-29T03:08:53.837Z,986.38
2018-06-29T03:09:53.775Z,986.32
2018-06-29T03:10:53.710Z,986.33
2018-06-29T03:11:53.646Z,986.34
2018-06-29T03:12:53.590Z,986.31
2018-06-29T03:13:53.507Z,986.28
2018-06-29T03:14:53.463Z,986.32
2018-06-29T03:15:53.401Z,986.28
2018-06-29T03:16:53.329Z,986.29
2018-06-29T03:17:53.275Z,986.30
2018-06-29T03:18:53.219Z,986.33
2018-06-29T03:19:53.139Z,986.34
2018-06-29T03:20:53.075Z,986.35
2018-06-29T03:21:53.026Z,986.35
2018-06-29T03:22:52.961Z,986.33
2018-06-29T03:23:52.889Z,986.33
2018-06-29T03:24:52.825Z,986.29
2018-06-29T03:25:52.780Z,986.28
2018-06-29T03:26:52.711Z,986.29
2018-06-29T03:27:52.638Z,986.26
2018-06-29T03:28:52.588Z,986.21
2018-06-29T03:29:52.523Z,986.22
2018-06-29T03:30:52.454Z,986.17
2018-06-29T03:31:52.400Z,986.14
2018-06-29T03:32:52.329Z,986.10
2018-06-29T03:33:52.278Z,986.02
2018-06-29T03:34:52.214Z,985.99
2018-06-29T03:35:52.152Z,985.93
2018-06-29T03:36:52.086Z,985.89
2018-06-29T03:37:52.014Z,985.87
2018-06-29T03:38:51.969Z,985.87
2018-06-29T03:39:51.890Z,985.86
2018-06-29T03:40:51.831Z,985.84
2018-06-29T03:41:51.764Z,985.87
2018-06-29T03:42:51.717Z,985.86
2018-06-29T03:43:51.640Z,985.90
2018-06-29T03:44:51.582Z,985.92
2018-06-29T03:45:51.527Z,985.93
2018-06-29T03:46:51.453Z,985.95
2018-06-29T03:47:51.400Z,985.93
2018-06-29T03:48:51.339Z,985.89
2018-06-29T03:49:51.275Z,985.84
2018-06-29T03:50:51.213Z,985.82
2018-06-29T03:51:51.147Z,985.80
2018-06-29T03:52:51.093Z,985.81
2018-06-29T03:53:51.025Z,985.89
2018-06-29T03:54:50.965Z,985.97
2018-06-29T03:55:50.908Z,986.04
2018-06-29T03:56:50.831Z,986.08
2018-06-29T03:57:50.782Z,986.10
2018-06-29T03:58:50.716Z,986.13
2018-06-29T03:59:50.660Z,986.15
2018-06-29T04:00:50.584Z,986.14
2018-06-29T04:01:50.528Z,986.17
2018-06-29T04:02:50.461Z,986.22
2018-06-29T04:03:50.399Z,986.28
2018-06-29T04:04:50.339Z,986.33
2018-06-29T04:05:50.272Z,986.34
2018-06-29T04:06:50.230Z,986.42
2018-06-29T04:07:50.154Z,986.42
2018-06-29T04:08:50.098Z,986.46
2018-06-29T04:09:50.013Z,986.42
2018-06-29T04:10:49.968Z,986.42
2018-06-29T04:11:49.924Z,986.40
2018-06-29T04:12:49.908Z,986.41
2018-06-29T04:13:49.784Z,986.36
2018-06-29T04:14:49.718Z,986.36
2018-06-29T04:15:49.658Z,986.39
2018-06-29T04:16:49.594Z,986.43
2018-06-29T04:17:49.537Z,986.40
2018-06-29T04:18:49.478Z,986.45
2018-06-29T04:19:49.411Z,986.48
2018-06-29T04:20:49.329Z,986.49
2018-06-29T04:21:49.282Z,986.48
2018-06-29T04:22:49.215Z,986.49
2018-06-29T04:23:49.149Z,986.48
2018-06-29T04:24:49.089Z,986.48
2018-06-29T04:25:49.033Z,986.45
2018-06-29T04:26:48.962Z,986.49
2018-06-29T04:27:48.900Z,986.50
2018-06-29T04:28:48.855Z,986.57
2018-06-29T04:29:48.788Z,986.61
2018-06-29T04:30:48.712Z,986.59
2018-06-29T04:31:48.650Z,986.61
2018-06-29T04:32:48.658Z,986.61
2018-06-29T04:33:48.544Z,986.60
2018-06-29T04:34:48.472Z,986.58
2018-06-29T04:35:48.407Z,986.57
2018-06-29T04:36:48.342Z,986.55
2018-06-29T04:37:48.277Z,986.55
2018-06-29T04:38:48.234Z,986.55
2018-06-29T04:39:48.157Z,986.56
2018-06-29T04:40:48.118Z,986.62
2018-06-29T04:41:48.037Z,986.59
2018-06-29T04:42:48.002Z,986.57
2018-06-29T04:43:47.915Z,986.56
2018-06-29T04:44:47.851Z,986.60
2018-06-29T04:45:47.792Z,986.57
2018-06-29T04:46:47.719Z,986.58
2018-06-29T04:47:47.659Z,986.57
2018-06-29T04:48:47.592Z,986.58
2018-06-29T04:49:47.553Z,986.55
2018-06-29T04:50:47.485Z,986.57
2018-06-29T04:51:47.416Z,986.55
2018-06-29T04:52:47.347Z,986.57
2018-06-29T04:53:47.295Z,986.59
2018-06-29T04:54:47.228Z,986.64
2018-06-29T04:55:47.154Z,986.62
2018-06-29T04:56:47.097Z,986.60
2018-06-29T04:57:47.052Z,986.56
2018-06-29T04:58:46.972Z,986.51
2018-06-29T04:59:46.941Z,986.56
2018-06-29T05:00:46.852Z,986.54
2018-06-29T05:01:46.781Z,986.61
2018-06-29T05:02:46.745Z,986.61
2018-06-29T05:03:46.668Z,986.63
2018-06-29T05:04:46.608Z,986.72
2018-06-29T05:05:46.542Z,986.68
2018-06-29T05:06:46.483Z,986.75
2018-06-29T05:07:46.413Z,986.76
2018-06-29T05:08:46.366Z,986.78
2018-06-29T05:09:46.281Z,986.72
2018-06-29T05:10:46.226Z,986.72
2018-06-29T05:11:46.164Z,986.69
2018-06-29T05:12:46.110Z,986.72
2018-06-29T05:13:46.039Z,986.70
2018-06-29T05:14:45.982Z,986.70
2018-06-29T05:15:45.908Z,986.77
2018-06-29T05:16:45.858Z,986.86
2018-06-29T05:17:45.795Z,986.87
2018-06-29T05:18:45.753Z,986.90
2018-06-29T05:19:45.678Z,986.92
2018-06-29T05:20:45.613Z,986.97
2018-06-29T05:21:45.530Z,986.91
2018-06-29T05:22:45.479Z,986.93
2018-06-29T05:23:45.412Z,986.90
2018-06-29T05:24:45.351Z,986.92
2018-06-29T05:25:45.292Z,986.87
2018-06-29T05:26:45.240Z,986.94
2018-06-29T05:27:45.178Z,986.91
2018-06-29T05:28:45.093Z,986.92
2018-06-29T05:29:45.037Z,986.94
2018-06-29T05:30:44.981Z,986.94
2018-06-29T05:31:44.914Z,986.97
2018-06-29T05:32:44.840Z,987.00
2018-06-29T05:33:44.796Z,987.02
2018-06-29T05:34:44.741Z,986.99
2018-06-29T05:35:44.676Z,986.99
2018-06-29T05:36:44.609Z,986.95
2018-06-29T05:37:44.542Z,986.98
2018-06-29T05:38:44.478Z,986.99
2018-06-29T05:39:44.442Z,987.03
2018-06-29T05:40:44.362Z,987.02
2018-06-29T05:41:44.325Z,987.01
2018-06-29T05:42:44.291Z,987.01
2018-06-29T05:43:44.476Z,987.07
2018-06-29T05:44:44.116Z,987.06
2018-06-29T05:45:44.038Z,987.06
2018-06-29T05:46:43.980Z,987.12
2018-06-29T05:47:43.922Z,987.11
2018-06-29T05:48:43.844Z,987.07
2018-06-29T05:49:43.791Z,987.11
2018-06-29T05:50:43.736Z,987.09
2018-06-29T05:51:43.678Z,987.13
2018-06-29T05:52:43.606Z,987.11
2018-06-29T05:53:43.588Z,987.16
2018-06-29T05:54:43.477Z,987.15
2018-06-29T05:55:43.432Z,987.16
2018-06-29T05:56:43.369Z,987.15
2018-06-29T05:57:43.293Z,987.16
2018-06-29T05:58:43.240Z,987.17
2018-06-29T05:59:43.179Z,987.16
2018-06-29T06:00:43.129Z,987.14
2018-06-29T06:01:43.055Z,987.13
2018-06-29T06:02:42.994Z,987.18
2018-06-29T06:03:42.932Z,987.16
2018-06-29T06:04:42.872Z,987.14
2018-06-29T06:05:42.801Z,987.10
2018-06-29T06:06:42.750Z,987.11
2018-06-29T06:07:42.680Z,987.12
2018-06-29T06:08:42.622Z,987.17
2018-06-29T06:09:42.562Z,987.15
2018-06-29T06:10:42.484Z,987.14
2018-06-29T06:11:42.437Z,987.16
2018-06-29T06:12:42.369Z,987.15
2018-06-29T06:13:42.310Z,987.13
2018-06-29T06:14:42.256Z,987.15
2018-06-29T06:15:42.194Z,987.14
2018-06-29T06:16:42.111Z,987.17
2018-06-29T06:17:42.060Z,987.15
2018-06-29T06:18:41.995Z,987.18
2018-06-29T06:19:41.952Z,987.19
2018-06-29T06:20:41.882Z,987.20
2018-06-29T06:21:41.814Z,987.17
2018-06-29T06:22:41.752Z,987.16
2018-06-29T06:23:41.687Z,987.19
2018-06-29T06:24:41.624Z,987.21
2018-06-29T06:25:41.557Z,987.22
2018-06-29T06:26:41.504Z,987.20
2018-06-29T06:27:41.444Z,987.22
2018-06-29T06:28:41.382Z,987.14
2018-06-29T06:29:41.307Z,987.16
2018-06-29T06:30:41.262Z,987.18
2018-06-29T06:31:41.185Z,987.18
2018-06-29T06:32:41.134Z,987.15
2018-06-29T06:33:41.065Z,987.17
2018-06-29T06:34:40.999Z,987.15
2018-06-29T06:35:40.938Z,987.15
2018-06-29T06:36:40.885Z,987.16
2018-06-29T06:37:40.816Z,987.23
2018-06-29T06:38:40.767Z,987.21
2018-06-29T06:39:40.697Z,987.23
2018-06-29T06:40:40.629Z,987.25
2018-06-29T06:41:40.629Z,987.25
2018-06-29T06:42:40.521Z,987.24
2018-06-29T06:43:40.471Z,987.26
2018-06-29T06:44:40.402Z,987.25
2018-06-29T06:45:40.321Z,987.20
2018-06-29T06:46:40.267Z,987.20
2018-06-29T06:47:40.209Z,987.22
2018-06-29T06:48:40.143Z,987.19
2018-06-29T06:49:40.085Z,987.18
2018-06-29T06:50:40.034Z,987.22
2018-06-29T06:51:39.958Z,987.18
2018-06-29T06:52:39.900Z,987.20
2018-06-29T06:53:39.896Z,987.21
2018-06-29T06:54:39.766Z,987.16
2018-06-29T06:55:39.706Z,987.15
2018-06-29T06:56:39.652Z,987.17
2018-06-29T06:57:39.588Z,987.18
2018-06-29T06:58:39.528Z,987.18
2018-06-29T06:59:39.466Z,987.18
2018-06-29T07:00:39.491Z,987.17
2018-06-29T07:01:39.346Z,987.16
2018-06-29T07:02:39.293Z,987.15
2018-06-29T07:03:39.222Z,987.12
2018-06-29T07:04:39.164Z,987.15
2018-06-29T07:05:39.097Z,987.11
2018-06-29T07:06:39.048Z,987.18
2018-06-29T07:07:38.979Z,987.16
2018-06-29T07:08:38.960Z,987.15
2018-06-29T07:09:38.859Z,987.16
2018-06-29T07:10:38.794Z,987.15
2018-06-29T07:11:38.754Z,987.16
2018-06-29T07:12:38.683Z,987.18
2018-06-29T07:13:38.623Z,987.17
2018-06-29T07:14:38.558Z,987.18
2018-06-29T07:15:38.479Z,987.16
2018-06-29T07:16:38.422Z,987.09
2018-06-29T07:17:38.390Z,987.12
2018-06-29T07:18:38.297Z,987.08
2018-06-29T07:19:38.243Z,987.11
2018-06-29T07:20:38.189Z,987.10
2018-06-29T07:21:38.115Z,987.10
2018-06-29T07:22:38.057Z,987.10
2018-06-29T07:23:37.999Z,987.11
2018-06-29T07:24:37.937Z,987.14
2018-06-29T07:25:37.887Z,987.09
2018-06-29T07:26:37.828Z,987.11
2018-06-29T07:27:37.756Z,987.07
2018-06-29T07:28:37.705Z,987.02
2018-06-29T07:29:37.633Z,986.99
2018-06-29T07:30:37.575Z,986.99
2018-06-29T07:31:37.505Z,987.00
2018-06-29T07:32:37.447Z,986.96
2018-06-29T07:33:37.404Z,986.99
2018-06-29T07:34:37.336Z,986.96
2018-06-29T07:35:37.268Z,986.97
2018-06-29T07:36:37.223Z,987.01
2018-06-29T07:37:37.155Z,986.98
2018-06-29T07:38:37.150Z,986.94
2018-06-29T07:39:37.034Z,986.94
2018-06-29T07:40:36.971Z,986.98
2018-06-29T07:41:36.916Z,986.98
2018-06-29T07:42:36.841Z,986.97
2018-06-29T07:43:36.783Z,986.96
2018-06-29T07:44:36.734Z,987.02
2018-06-29T07:45:36.661Z,987.02
2018-06-29T07:46:36.616Z,986.99
2018-06-29T07:47:36.545Z,987.02
2018-06-29T07:48:36.471Z,987.00
2018-06-29T07:49:36.436Z,987.00
2018-06-29T07:50:36.366Z,986.97
2018-06-29T07:51:36.308Z,986.99
2018-06-29T07:52:36.247Z,987.01
2018-06-29T07:53:36.187Z,986.98
2018-06-29T07:54:36.132Z,986.93
2018-06-29T07:55:36.057Z,986.93
2018-06-29T07:56:36.005Z,986.94
2018-06-29T07:57:35.940Z,986.93
2018-06-29T07:58:35.916Z,986.89
2018-06-29T07:59:35.824Z,986.92
2018-06-29T08:00:35.755Z,986.91
2018-06-29T08:01:35.687Z,986.88
2018-06-29T08:02:35.646Z,986.89
2018-06-29T08:03:35.583Z,986.90
2018-06-29T08:04:35.524Z,986.92
2018-06-29T08:05:35.459Z,986.89
2018-06-29T08:06:35.394Z,986.88
2018-06-29T08:07:35.329Z,986.86
2018-06-29T08:08:35.272Z,986.90
2018-06-29T08:09:35.211Z,986.90
2018-06-29T08:10:35.220Z,986.93
2018-06-29T08:11:35.100Z,986.91
2018-06-29T08:12:35.031Z,986.90
2018-06-29T08:13:34.989Z,986.88
2018-06-29T08:14:34.915Z,986.83
2018-06-29T08:15:34.865Z,986.84
2018-06-29T08:16:34.804Z,986.78
2018-06-29T08:17:34.747Z,986.78
2018-06-29T08:18:34.671Z,986.74
2018-06-29T08:19:34.624Z,986.73
2018-06-29T08:20:34.566Z,986.73
2018-06-29T08:21:34.493Z,986.74
2018-06-29T08:22:34.445Z,986.73
2018-06-29T08:23:34.378Z,986.73
2018-06-29T08:24:34.323Z,986.68
2018-06-29T08:25:34.256Z,986.64
2018-06-29T08:26:34.196Z,986.65
2018-06-29T08:27:34.155Z,986.61
2018-06-29T08:28:34.080Z,986.57
2018-06-29T08:29:34.028Z,986.60
2018-06-29T08:30:33.968Z,986.58
2018-06-29T08:31:33.896Z,986.58
2018-06-29T08:32:33.841Z,986.62
2018-06-29T08:33:33.789Z,986.60
2018-06-29T08:34:33.725Z,986.62
2018-06-29T08:35:33.670Z,986.58
2018-06-29T08:36:33.603Z,986.58
2018-06-29T08:37:33.551Z,986.60
2018-06-29T08:38:33.529Z,986.55
2018-06-29T08:39:33.427Z,986.56
2018-06-29T08:40:33.364Z,986.56
2018-06-29T08:41:33.318Z,986.61
2018-06-29T08:42:33.258Z,986.60
2018-06-29T08:43:33.199Z,986.59
2018-06-29T08:44:33.124Z,986.54
2018-06-29T08:45:33.083Z,986.53
2018-06-29T08:46:33.016Z,986.53
2018-06-29T08:47:32.964Z,986.52
2018-06-29T08:48:32.903Z,986.52
2018-06-29T08:49:32.898Z,986.52
2018-06-29T08:50:32.768Z,986.53
2018-06-29T08:51:32.716Z,986.51
2018-06-29T08:52:32.658Z,986.54
2018-06-29T08:53:32.603Z,986.52
2018-06-29T08:54:32.542Z,986.47
2018-06-29T08:55:32.478Z,986.48
2018-06-29T08:56:32.438Z,986.47
2018-06-29T08:57:32.386Z,986.46
2018-06-29T08:58:32.306Z,986.45
2018-06-29T08:59:32.250Z,986.47
2018-06-29T09:00:32.202Z,986.44
2018-06-29T09:01:32.131Z,986.44
2018-06-29T09:02:32.077Z,986.43
2018-06-29T09:03:32.023Z,986.41
2018-06-29T09:04:31.956Z,986.40
2018-06-29T09:05:31.895Z,986.45
2018-06-29T09:06:31.828Z,986.46
2018-06-29T09:07:31.794Z,986.44
2018-06-29T09:08:31.718Z,986.43
2018-06-29T09:09:31.650Z,986.44
2018-06-29T09:10:31.602Z,986.39
2018-06-29T09:11:31.555Z,986.40
2018-06-29T09:12:31.486Z,986.39
2018-06-29T09:13:31.434Z,986.40
2018-06-29T09:14:31.360Z,986.41
2018-06-29T09:15:31.314Z,986.35
2018-06-29T09:16:31.257Z,986.33
2018-06-29T09:17:31.202Z,986.34
2018-06-29T09:18:31.132Z,986.40
2018-06-29T09:19:31.078Z,986.32
2018-06-29T09:20:31.013Z,986.37
2018-06-29T09:21:30.968Z,986.35
2018-06-29T09:22:30.905Z,986.33
2018-06-29T09:23:30.844Z,986.31
2018-06-29T09:24:30.786Z,986.30
2018-06-29T09:25:30.725Z,986.33
2018-06-29T09:26:30.676Z,986.33
2018-06-29T09:27:30.599Z,986.34
2018-06-29T09:28:30.548Z,986.36
2018-06-29T09:29:30.495Z,986.33
2018-06-29T09:30:30.434Z,986.38
2018-06-29T09:31:30.376Z,986.34
2018-06-29T09:32:30.306Z,986.33
2018-06-29T09:33:30.250Z,986.29
2018-06-29T09:34:30.201Z,986.32
2018-06-29T09:35:30.143Z,986.31
2018-06-29T09:36:30.083Z,986.37
2018-06-29T09:37:30.028Z,986.27
2018-06-29T09:38:29.950Z,986.26
2018-06-29T09:39:29.913Z,986.28
2018-06-29T09:40:29.850Z,986.28
2018-06-29T09:41:29.792Z,986.31
2018-06-29T09:42:29.773Z,986.28
2018-06-29T09:43:29.667Z,986.28
2018-06-29T09:44:29.611Z,986.25
2018-06-29T09:45:29.552Z,986.26
2018-06-29T09:46:29.482Z,986.28
2018-06-29T09:47:29.472Z,986.28
2018-06-29T09:48:29.378Z,986.27
2018-06-29T09:49:29.310Z,986.26
2018-06-29T09:50:29.268Z,986.26
2018-06-29T09:51:29.198Z,986.24
2018-06-29T09:52:29.132Z,986.28
2018-06-29T09:53:29.094Z,986.30
2018-06-29T09:54:29.023Z,986.27
2018-06-29T09:55:28.964Z,986.26
2018-06-29T09:56:28.893Z,986.25
2018-06-29T09:57:28.884Z,986.21
2018-06-29T09:58:28.792Z,986.17
2018-06-29T09:59:28.735Z,986.17
2018-06-29T10:00:28.676Z,986.14
2018-06-29T10:01:28.774Z,986.16
2018-06-29T10:02:31.690Z,986.17
2018-06-29T10:03:28.494Z,986.20
2018-06-29T10:04:28.427Z,986.16
2018-06-29T10:05:28.375Z,986.18
2018-06-29T10:06:28.373Z,986.16
2018-06-29T10:07:28.268Z,986.17
2018-06-29T10:08:28.192Z,986.13
2018-06-29T10:09:28.135Z,986.11
2018-06-29T10:10:28.085Z,986.10
2018-06-29T10:11:28.027Z,986.14
2018-06-29T10:12:27.961Z,986.10
2018-06-29T10:13:27.897Z,986.12
2018-06-29T10:14:27.886Z,986.08
2018-06-29T10:15:27.787Z,986.05
2018-06-29T10:16:27.718Z,986.00
2018-06-29T10:17:27.676Z,986.03
2018-06-29T10:18:27.624Z,986.00
2018-06-29T10:19:27.558Z,986.05
2018-06-29T10:20:27.497Z,986.01
2018-06-29T10:21:27.436Z,985.96
2018-06-29T10:22:27.387Z,986.01
2018-06-29T10:23:27.319Z,986.03
2018-06-29T10:24:27.257Z,986.01
2018-06-29T10:25:27.209Z,986.02
2018-06-29T10:26:27.137Z,985.98
2018-06-29T10:27:27.085Z,985.95
2018-06-29T10:28:27.020Z,985.98
2018-06-29T10:29:26.963Z,985.95
2018-06-29T10:30:26.914Z,985.94
2018-06-29T10:31:26.870Z,985.91
2018-06-29T10:32:26.789Z,985.95
2018-06-29T10:33:26.740Z,985.91
2018-06-29T10:34:26.672Z,985.87
2018-06-29T10:35:26.620Z,985.83
2018-06-29T10:36:26.561Z,985.80
2018-06-29T10:37:26.514Z,985.88
2018-06-29T10:38:26.444Z,985.75
2018-06-29T10:39:26.390Z,985.77
2018-06-29T10:40:26.328Z,985.75
2018-06-29T10:41:26.295Z,985.81
2018-06-29T10:42:26.205Z,985.74
2018-06-29T10:43:26.159Z,985.73
2018-06-29T10:44:26.092Z,985.76
2018-06-29T10:45:26.031Z,985.73
2018-06-29T10:46:25.967Z,985.72
2018-06-29T10:47:25.910Z,985.72
2018-06-29T10:48:25.861Z,985.70
2018-06-29T10:49:25.804Z,985.69
2018-06-29T10:50:25.744Z,985.68
2018-06-29T10:51:25.689Z,985.73
2018-06-29T10:52:25.633Z,985.68
2018-06-29T10:53:25.566Z,985.67
2018-06-29T10:54:25.559Z,985.62
2018-06-29T10:55:25.455Z,985.66
2018-06-29T10:56:25.390Z,985.63
2018-06-29T10:57:25.345Z,985.63
2018-06-29T10:58:25.269Z,985.60
2018-06-29T10:59:25.217Z,985.64
2018-06-29T11:00:25.162Z,985.58
2018-06-29T11:01:25.160Z,985.59
2018-06-29T11:02:25.056Z,985.59
2018-06-29T11:03:24.975Z,985.55
2018-06-29T11:04:24.937Z,985.47
2018-06-29T11:05:24.878Z,985.51
2018-06-29T11:06:24.814Z,985.49
2018-06-29T11:07:24.751Z,985.45
2018-06-29T11:08:24.689Z,985.53
2018-06-29T11:09:24.637Z,985.51
2018-06-29T11:10:24.585Z,985.47
2018-06-29T11:11:24.524Z,985.43
2018-06-29T11:12:24.466Z,985.53
2018-06-29T11:13:24.414Z,985.46
2018-06-29T11:14:24.356Z,985.42
2018-06-29T11:15:24.300Z,985.47
2018-06-29T11:16:24.242Z,985.36
2018-06-29T11:17:24.180Z,985.38
2018-06-29T11:18:24.130Z,985.34
2018-06-29T11:19:24.054Z,985.36
2018-06-29T11:20:23.998Z,985.35
2018-06-29T11:21:23.940Z,985.35
2018-06-29T11:22:23.878Z,985.30
2018-06-29T11:23:23.819Z,985.38
2018-06-29T11:24:23.774Z,985.33
2018-06-29T11:25:23.698Z,985.30
2018-06-29T11:26:23.643Z,985.18
2018-06-29T11:27:23.594Z,985.23
2018-06-29T11:28:23.527Z,985.23
2018-06-29T11:29:23.481Z,985.22
2018-06-29T11:30:23.436Z,985.14
2018-06-29T11:31:23.364Z,985.16
2018-06-29T11:32:23.290Z,985.17
2018-06-29T11:33:23.244Z,985.16
2018-06-29T11:34:23.179Z,985.11
2018-06-29T11:35:23.124Z,985.11
2018-06-29T11:36:23.062Z,985.07
2018-06-29T11:37:22.997Z,984.94
2018-06-29T11:38:22.953Z,984.99
2018-06-29T11:39:22.892Z,984.99
2018-06-29T11:40:22.830Z,985.06
2018-06-29T11:41:22.770Z,984.98
2018-06-29T11:42:22.720Z,984.96
2018-06-29T11:43:22.651Z,984.95
2018-06-29T11:44:22.585Z,984.87
2018-06-29T11:45:22.537Z,984.87
2018-06-29T11:46:22.483Z,984.94
2018-06-29T11:47:22.412Z,984.89
2018-06-29T11:48:22.356Z,984.90
2018-06-29T11:49:22.299Z,984.82
2018-06-29T11:50:22.248Z,984.83
2018-06-29T11:51:22.229Z,984.74
2018-06-29T11:52:22.113Z,984.76
2018-06-29T11:53:22.063Z,984.74
2018-06-29T11:54:22.010Z,984.64
2018-06-29T11:55:21.943Z,984.74
2018-06-29T11:56:21.904Z,984.65
2018-06-29T11:57:21.833Z,984.68
2018-06-29T11:58:21.779Z,984.69
2018-06-29T11:59:21.715Z,984.65
2018-06-29T12:00:21.663Z,984.62
2018-06-29T12:01:21.612Z,984.64
2018-06-29T12:02:21.530Z,984.58
2018-06-29T12:03:21.482Z,984.59
2018-06-29T12:04:21.419Z,984.53
2018-06-29T12:05:21.370Z,984.56
2018-06-29T12:06:21.316Z,984.55
2018-06-29T12:07:21.250Z,984.48
2018-06-29T12:08:21.187Z,984.53
2018-06-29T12:09:21.133Z,984.48
2018-06-29T12:10:21.072Z,984.48
2018-06-29T12:11:21.016Z,984.52
2018-06-29T12:12:20.943Z,984.56
2018-06-29T12:13:20.895Z,984.59
2018-06-29T12:14:20.834Z,984.52
2018-06-29T12:15:20.775Z,984.53
2018-06-29T12:16:20.728Z,984.41
2018-06-29T12:17:20.666Z,984.40
2018-06-29T12:18:20.603Z,984.45
2018-06-29T12:19:20.607Z,984.37
2018-06-29T12:20:20.489Z,984.45
2018-06-29T12:21:20.425Z,984.42
2018-06-29T12:22:20.366Z,984.46
2018-06-29T12:23:20.356Z,984.42
2018-06-29T12:24:20.249Z,984.44
2018-06-29T12:25:20.189Z,984.36
2018-06-29T12:26:20.138Z,984.30
2018-06-29T12:27:20.065Z,984.31